createdAt,value
2023-01-19T00:01:06.562Z,93725.84
2023-01-19T00:03:37.170Z,93730.97
2023-01-19T00:06:07.546Z,93742.66
2023-01-19T00:08:36.896Z,93752.28
2023-01-19T00:11:06.460Z,93771.44
2023-01-19T00:13:35.442Z,93744.06
2023-01-19T00:16:06.215Z,93752.53
2023-01-19T00:18:35.761Z,93775.41
2023-01-19T00:21:04.786Z,93774.28
2023-01-19T00:23:33.863Z,93778.31
2023-01-19T00:26:03.016Z,93767.66
2023-01-19T00:28:32.121Z,93753.59
2023-01-19T00:31:01.079Z,93767.41
2023-01-19T00:33:31.708Z,93769.25
2023-01-19T00:36:00.857Z,93760.22
2023-01-19T00:38:30.013Z,93755.69
2023-01-19T00:40:59.016Z,93771.38
2023-01-19T00:43:28.399Z,93749.59
2023-01-19T00:45:57.687Z,93742.50
2023-01-19T00:48:26.893Z,93750.16
2023-01-19T00:50:57.343Z,93771.91
2023-01-19T00:53:26.501Z,93759.94
2023-01-19T00:55:55.862Z,93761.84
2023-01-19T00:58:24.958Z,93768.41
2023-01-19T01:00:57.826Z,93764.13
2023-01-19T01:03:28.331Z,93768.34
2023-01-19T01:05:59.223Z,93765.47
2023-01-19T01:08:28.345Z,93784.06
2023-01-19T01:10:57.865Z,93792.28
2023-01-19T01:13:28.097Z,93784.97
2023-01-19T01:15:58.367Z,93783.06
2023-01-19T01:18:28.018Z,93787.81
2023-01-19T01:21:04.596Z,93783.53
2023-01-19T01:23:33.919Z,93776.34
2023-01-19T01:26:03.055Z,93804.78
2023-01-19T01:28:32.675Z,93791.75
2023-01-19T01:31:01.833Z,93794.34
2023-01-19T01:33:40.975Z,93810.56
2023-01-19T01:36:13.060Z,93803.38
2023-01-19T01:38:42.888Z,93794.88
2023-01-19T01:41:12.473Z,93802.31
2023-01-19T01:43:50.401Z,93782.06
2023-01-19T01:46:20.157Z,93793.25
2023-01-19T01:48:54.167Z,93809.47
2023-01-19T01:51:30.430Z,93799.03
2023-01-19T01:54:09.979Z,93782.84
2023-01-19T01:56:41.750Z,93775.94
2023-01-19T01:59:18.263Z,93777.81
2023-01-19T02:02:04.760Z,93781.78
2023-01-19T02:04:34.487Z,93783.03
2023-01-19T02:07:22.539Z,93768.69
2023-01-19T02:10:10.282Z,93780.13
2023-01-19T02:12:56.821Z,93771.88
2023-01-19T02:15:26.216Z,93767.97
2023-01-19T02:17:55.350Z,93778.25
2023-01-19T02:20:28.918Z,93782.59
2023-01-19T02:23:05.634Z,93774.00
2023-01-19T02:25:36.371Z,93768.13
2023-01-19T02:28:06.725Z,93775.59
2023-01-19T02:30:37.360Z,93762.09
2023-01-19T02:33:07.434Z,93767.91
2023-01-19T02:35:39.568Z,93751.44
2023-01-19T02:38:10.549Z,93754.38
2023-01-19T02:40:44.264Z,93752.00
2023-01-19T02:43:13.508Z,93746.72
2023-01-19T02:45:44.665Z,93742.97
2023-01-19T02:48:13.879Z,93747.47
2023-01-19T02:50:46.424Z,93753.03
2023-01-19T02:53:35.622Z,93732.75
2023-01-19T02:56:25.238Z,93727.56
2023-01-19T02:59:05.272Z,93736.34
2023-01-19T03:01:44.909Z,93712.44
2023-01-19T03:04:24.330Z,93733.91
2023-01-19T03:07:01.667Z,93718.94
2023-01-19T03:09:38.674Z,93711.75
2023-01-19T03:12:17.032Z,93730.22
2023-01-19T03:14:49.420Z,93729.38
2023-01-19T03:17:20.428Z,93721.13
2023-01-19T03:19:52.084Z,93716.81
2023-01-19T03:22:24.501Z,93728.97
2023-01-19T03:24:56.937Z,93721.47
2023-01-19T03:27:30.298Z,93725.25
2023-01-19T03:30:02.355Z,93714.22
2023-01-19T03:32:36.491Z,93696.19
2023-01-19T03:35:11.464Z,93710.69
2023-01-19T03:37:44.188Z,93691.63
2023-01-19T03:40:14.021Z,93706.50
2023-01-19T03:42:46.065Z,93686.59
2023-01-19T03:45:16.174Z,93679.75
2023-01-19T03:47:45.321Z,93692.53
2023-01-19T03:50:22.351Z,93712.94
2023-01-19T03:53:03.687Z,93704.97
2023-01-19T03:55:32.734Z,93700.59
2023-01-19T03:58:03.179Z,93692.63
2023-01-19T04:00:32.610Z,93699.84
2023-01-19T04:03:02.158Z,93711.03
2023-01-19T04:05:31.757Z,93716.66
2023-01-19T04:08:01.105Z,93710.75
2023-01-19T04:10:30.648Z,93698.03
2023-01-19T04:13:00.935Z,93703.34
2023-01-19T04:15:32.462Z,93707.75
2023-01-19T04:18:02.613Z,93693.81
2023-01-19T04:20:31.852Z,93734.03
2023-01-19T04:23:02.754Z,93689.59
2023-01-19T04:25:32.086Z,93693.81
2023-01-19T04:28:01.307Z,93688.03
2023-01-19T04:30:31.885Z,93705.78
2023-01-19T04:33:01.476Z,93705.56
2023-01-19T04:35:30.964Z,93729.44
2023-01-19T04:37:59.954Z,93692.94
2023-01-19T04:40:29.013Z,93698.03
2023-01-19T04:42:58.769Z,93710.56
2023-01-19T04:45:27.928Z,93718.78
2023-01-19T04:47:58.407Z,93728.91
2023-01-19T04:50:27.815Z,93712.44
2023-01-19T04:52:56.864Z,93730.50
2023-01-19T04:55:26.123Z,93713.22
2023-01-19T04:57:55.548Z,93740.63
2023-01-19T05:00:24.961Z,93726.50
2023-01-19T05:02:54.273Z,93751.72
2023-01-19T05:05:25.195Z,93743.75
2023-01-19T05:07:54.994Z,93737.91
2023-01-19T05:10:24.626Z,93735.53
2023-01-19T05:12:53.801Z,93740.84
2023-01-19T05:15:22.875Z,93741.94
2023-01-19T05:17:53.046Z,93744.31
2023-01-19T05:20:22.380Z,93723.88
2023-01-19T05:22:53.896Z,93750.19
2023-01-19T05:25:23.110Z,93722.06
2023-01-19T05:27:55.858Z,93725.53
2023-01-19T05:30:25.656Z,93737.75
2023-01-19T05:32:54.803Z,93714.38
2023-01-19T05:35:35.259Z,93727.44
2023-01-19T05:38:06.573Z,93748.16
2023-01-19T05:40:35.717Z,93763.56
2023-01-19T05:43:05.562Z,93776.00
2023-01-19T05:45:34.899Z,93781.81
2023-01-19T05:48:03.902Z,93785.28
2023-01-19T05:50:33.376Z,93774.88
2023-01-19T05:53:03.501Z,93775.94
2023-01-19T05:55:34.168Z,93773.81
2023-01-19T05:58:03.442Z,93788.69
2023-01-19T06:00:32.662Z,93771.94
2023-01-19T06:03:02.803Z,93785.44
2023-01-19T06:05:32.405Z,93797.47
2023-01-19T06:08:01.782Z,93790.31
2023-01-19T06:10:30.930Z,93793.50
2023-01-19T06:13:01.892Z,93800.91
2023-01-19T06:15:31.406Z,93805.94
2023-01-19T06:18:00.638Z,93808.56
2023-01-19T06:20:29.888Z,93798.44
2023-01-19T06:22:59.273Z,93807.47
2023-01-19T06:25:28.981Z,93790.88
2023-01-19T06:27:58.128Z,93803.88
2023-01-19T06:30:29.281Z,93804.72
2023-01-19T06:32:58.643Z,93825.16
2023-01-19T06:35:27.758Z,93787.16
2023-01-19T06:37:56.882Z,93798.25
2023-01-19T06:40:26.034Z,93807.25
2023-01-19T06:42:55.156Z,93810.34
2023-01-19T06:45:24.403Z,93797.28
2023-01-19T06:47:58.015Z,93792.19
2023-01-19T06:50:27.169Z,93800.47
2023-01-19T06:52:56.390Z,93780.97
2023-01-19T06:55:25.486Z,93784.41
2023-01-19T06:58:00.829Z,93778.75
2023-01-19T07:00:30.616Z,93793.28
2023-01-19T07:03:01.420Z,93790.34
2023-01-19T07:05:30.740Z,93789.69
2023-01-19T07:07:59.990Z,93792.06
2023-01-19T07:11:25.200Z,93794.44
2023-01-19T07:13:18.381Z,93783.69
2023-01-19T07:15:47.649Z,93791.41
2023-01-19T07:18:18.185Z,93802.78
2023-01-19T07:20:49.443Z,93787.81
2023-01-19T07:23:18.702Z,93805.59
2023-01-19T07:25:48.261Z,93814.09
2023-01-19T07:28:17.932Z,93794.06
2023-01-19T07:30:47.539Z,93805.69
2023-01-19T07:33:18.446Z,93814.31
2023-01-19T07:35:49.069Z,93791.81
2023-01-19T07:38:19.741Z,93794.63
2023-01-19T07:40:49.143Z,93801.47
2023-01-19T07:43:18.503Z,93799.72
2023-01-19T07:45:47.753Z,93806.47
2023-01-19T07:48:18.434Z,93811.41
2023-01-19T07:50:47.639Z,93830.41
2023-01-19T07:53:17.066Z,93825.97
2023-01-19T07:55:46.234Z,93826.47
2023-01-19T07:58:15.353Z,93808.75
2023-01-19T08:00:44.374Z,93836.41
2023-01-19T08:03:13.728Z,93830.81
2023-01-19T08:05:44.267Z,93822.69
2023-01-19T08:08:13.812Z,93848.97
2023-01-19T08:10:42.880Z,93839.38
2023-01-19T08:13:11.866Z,93847.31
2023-01-19T08:15:41.184Z,93858.22
2023-01-19T08:18:11.888Z,93845.16
2023-01-19T08:20:41.344Z,93860.59
2023-01-19T08:23:12.017Z,93848.94
2023-01-19T08:25:45.412Z,93866.16
2023-01-19T08:28:16.514Z,93869.00
2023-01-19T08:30:45.981Z,93863.00
2023-01-19T08:33:15.378Z,93867.06
2023-01-19T08:35:49.231Z,93874.38
2023-01-19T08:38:20.079Z,93880.00
2023-01-19T08:40:50.655Z,93872.09
2023-01-19T08:43:19.923Z,93868.91
2023-01-19T08:45:53.469Z,93892.09
2023-01-19T08:48:24.259Z,93896.66
2023-01-19T08:50:54.242Z,93897.84
2023-01-19T08:53:25.297Z,93881.97
2023-01-19T08:56:00.158Z,93877.50
2023-01-19T08:58:29.301Z,93890.16
2023-01-19T09:01:03.118Z,93887.47
2023-01-19T09:03:33.170Z,93890.53
2023-01-19T09:06:03.034Z,93857.28
2023-01-19T09:08:33.722Z,93866.66
2023-01-19T09:11:02.805Z,93860.13
2023-01-19T09:13:31.912Z,93880.75
2023-01-19T09:16:04.248Z,93884.66
2023-01-19T09:18:33.846Z,93875.41
2023-01-19T09:21:04.137Z,93886.00
2023-01-19T09:23:34.859Z,93871.34
2023-01-19T09:26:05.684Z,93872.50
2023-01-19T09:28:35.194Z,93862.59
2023-01-19T09:31:08.002Z,93845.50
2023-01-19T09:33:37.432Z,93850.00
2023-01-19T09:36:07.119Z,93852.13
2023-01-19T09:38:38.737Z,93859.41
2023-01-19T09:41:18.986Z,93864.53
2023-01-19T09:43:52.261Z,93867.19
2023-01-19T09:46:24.743Z,93850.09
2023-01-19T09:48:56.812Z,93846.28
2023-01-19T09:51:27.968Z,93865.63
2023-01-19T09:54:06.669Z,93848.47
2023-01-19T09:56:35.941Z,93856.50
2023-01-19T09:59:18.755Z,93847.19
2023-01-19T10:02:03.739Z,93839.53
2023-01-19T10:04:36.144Z,93832.09
2023-01-19T10:07:12.474Z,93834.06
2023-01-19T10:09:56.389Z,93833.34
2023-01-19T10:12:45.161Z,93827.53
2023-01-19T10:15:24.876Z,93830.38
2023-01-19T10:18:05.858Z,93820.66
2023-01-19T10:20:40.084Z,93828.78
2023-01-19T10:23:23.488Z,93855.66
2023-01-19T10:25:58.221Z,93825.81
2023-01-19T10:28:28.372Z,93820.22
2023-01-19T10:30:57.689Z,93831.16
2023-01-19T10:33:27.475Z,93846.84
2023-01-19T10:35:56.769Z,93824.34
2023-01-19T10:38:28.939Z,93817.88
2023-01-19T10:41:05.318Z,93833.75
2023-01-19T10:43:40.041Z,93836.66
2023-01-19T10:46:18.761Z,93830.38
2023-01-19T10:48:50.480Z,93818.00
2023-01-19T10:51:21.088Z,93840.97
2023-01-19T10:53:59.553Z,93825.00
2023-01-19T10:56:34.459Z,93812.09
2023-01-19T10:59:05.883Z,93841.91
2023-01-19T11:01:37.673Z,93838.44
2023-01-19T11:04:29.219Z,93840.94
2023-01-19T11:07:15.872Z,93813.91
2023-01-19T11:09:45.202Z,93817.28
2023-01-19T11:12:24.195Z,93827.75
2023-01-19T11:14:54.083Z,93822.72
2023-01-19T11:17:25.453Z,93821.31
2023-01-19T11:19:57.803Z,93814.06
2023-01-19T11:22:30.945Z,93826.56
2023-01-19T11:25:01.766Z,93834.50
2023-01-19T11:27:37.718Z,93820.06
2023-01-19T11:30:19.354Z,93815.31
2023-01-19T11:32:49.527Z,93827.47
2023-01-19T11:35:35.945Z,93830.25
2023-01-19T11:38:15.186Z,93813.22
2023-01-19T11:40:53.280Z,93805.59
2023-01-19T11:43:27.665Z,93794.44
2023-01-19T11:46:00.010Z,93801.84
2023-01-19T11:48:34.994Z,93789.38
2023-01-19T11:51:08.908Z,93798.69
2023-01-19T11:53:39.076Z,93798.00
2023-01-19T11:56:12.213Z,93797.31
2023-01-19T11:58:43.393Z,93798.22
2023-01-19T12:01:21.289Z,93788.41
2023-01-19T12:03:58.405Z,93806.50
2023-01-19T12:06:32.361Z,93804.31
2023-01-19T12:09:04.854Z,93794.53
2023-01-19T12:11:37.217Z,93801.94
2023-01-19T12:14:17.390Z,93790.38
2023-01-19T12:16:47.915Z,93799.69
2023-01-19T12:19:20.299Z,93792.44
2023-01-19T12:21:50.490Z,93791.78
2023-01-19T12:24:29.161Z,93775.28
2023-01-19T12:26:59.992Z,93783.19
2023-01-19T12:29:35.420Z,93778.50
2023-01-19T12:32:33.720Z,93775.53
2023-01-19T12:35:02.921Z,93779.09
2023-01-19T12:37:41.286Z,93771.88
2023-01-19T12:40:25.484Z,93758.50
2023-01-19T12:43:00.863Z,93756.81
2023-01-19T12:45:36.384Z,93745.13
2023-01-19T12:48:09.198Z,93738.59
2023-01-19T12:50:39.870Z,93773.88
2023-01-19T12:53:20.949Z,93755.03
2023-01-19T12:56:01.380Z,93754.53
2023-01-19T12:58:31.273Z,93746.03
2023-01-19T13:01:20.307Z,93744.00
2023-01-19T13:04:04.735Z,93739.75
2023-01-19T13:07:08.728Z,93736.50
2023-01-19T13:09:39.664Z,93726.47
2023-01-19T13:12:27.953Z,93744.75
2023-01-19T13:15:28.847Z,93741.78
2023-01-19T13:17:59.927Z,93748.56
2023-01-19T13:20:46.280Z,93749.84
2023-01-19T13:23:26.905Z,93739.47
2023-01-19T13:26:04.540Z,93750.34
2023-01-19T13:28:39.360Z,93750.44
2023-01-19T13:31:10.297Z,93733.06
2023-01-19T13:33:50.243Z,93744.53
2023-01-19T13:36:28.771Z,93733.03
2023-01-19T13:39:00.871Z,93750.16
2023-01-19T13:41:33.066Z,93731.66
2023-01-19T13:44:04.843Z,93727.78
2023-01-19T13:46:34.863Z,93736.69
2023-01-19T13:49:16.977Z,93741.50
2023-01-19T13:51:47.505Z,93743.16
2023-01-19T13:54:18.590Z,93753.66
2023-01-19T13:56:51.489Z,93758.19
2023-01-19T13:59:20.632Z,93758.00
2023-01-19T14:01:51.608Z,93750.78
2023-01-19T14:04:31.289Z,93755.09
2023-01-19T14:07:02.847Z,93754.31
2023-01-19T14:09:34.416Z,93773.44
2023-01-19T14:12:12.066Z,93773.44
2023-01-19T14:14:41.679Z,93784.63
2023-01-19T14:17:28.459Z,93781.38
2023-01-19T14:20:01.297Z,93790.47
2023-01-19T14:22:51.305Z,93792.03
2023-01-19T14:25:31.399Z,93802.00
2023-01-19T14:28:35.669Z,93775.22
2023-01-19T14:31:19.527Z,93800.78
2023-01-19T14:33:50.390Z,93809.59
2023-01-19T14:36:30.556Z,93814.13
2023-01-19T14:39:01.842Z,93809.19
2023-01-19T14:41:39.172Z,93825.16
2023-01-19T14:44:12.940Z,93809.03
2023-01-19T14:46:48.248Z,93814.16
2023-01-19T14:49:22.815Z,93821.13
2023-01-19T14:51:53.813Z,93823.28
2023-01-19T14:54:33.328Z,93829.78
2023-01-19T14:57:02.425Z,93833.31
2023-01-19T14:59:31.776Z,93841.22
2023-01-19T15:02:01.200Z,93848.44
2023-01-19T15:04:30.631Z,93839.72
2023-01-19T15:07:01.306Z,93842.25
2023-01-19T15:09:30.560Z,93840.81
2023-01-19T15:12:00.589Z,93873.53
2023-01-19T15:14:29.706Z,93865.81
2023-01-19T15:16:59.301Z,93870.38
2023-01-19T15:19:28.475Z,93867.19
2023-01-19T15:21:57.686Z,93860.97
2023-01-19T15:24:28.414Z,93867.97
2023-01-19T15:27:01.862Z,93872.22
2023-01-19T15:29:32.287Z,93887.34
2023-01-19T15:32:02.555Z,93895.31
2023-01-19T15:34:32.785Z,93908.59
2023-01-19T15:37:01.908Z,93918.03
2023-01-19T15:39:32.447Z,93925.28
2023-01-19T15:42:02.015Z,93922.72
2023-01-19T15:44:31.851Z,93930.19
2023-01-19T15:47:01.243Z,93935.28
2023-01-19T15:49:31.151Z,93924.94
2023-01-19T15:52:00.319Z,93911.13
2023-01-19T15:54:29.776Z,93911.66
2023-01-19T15:57:00.497Z,93895.78
2023-01-19T15:59:29.538Z,93896.28
2023-01-19T16:01:58.915Z,93894.44
2023-01-19T16:04:28.135Z,93896.81
2023-01-19T16:06:57.256Z,93888.91
2023-01-19T16:09:26.382Z,93893.38
2023-01-19T16:11:57.961Z,93902.91
2023-01-19T16:14:28.703Z,93918.84
2023-01-19T16:17:00.245Z,93922.78
2023-01-19T16:19:29.487Z,93938.94
2023-01-19T16:21:58.591Z,93956.19
2023-01-19T16:24:27.696Z,93961.75
2023-01-19T16:26:56.959Z,93967.59
2023-01-19T16:29:27.815Z,93985.91
2023-01-19T16:31:57.105Z,93973.19
2023-01-19T16:34:26.341Z,93976.88
2023-01-19T16:36:55.511Z,93978.19
2023-01-19T16:39:24.756Z,93963.88
2023-01-19T16:41:53.848Z,93970.50
2023-01-19T16:44:23.071Z,93970.50
2023-01-19T16:46:53.719Z,93977.13
2023-01-19T16:49:26.259Z,93983.75
2023-01-19T16:51:58.806Z,93981.63
2023-01-19T16:54:28.927Z,93966.25
2023-01-19T16:56:59.336Z,93987.22
2023-01-19T16:59:29.625Z,93984.28
2023-01-19T17:02:00.355Z,93979.78
2023-01-19T17:04:30.053Z,93995.38
2023-01-19T17:06:59.458Z,93991.59
2023-01-19T17:09:29.170Z,93974.06
2023-01-19T17:11:59.624Z,93975.94
2023-01-19T17:14:28.784Z,93976.72
2023-01-19T17:17:00.927Z,93960.56
2023-01-19T17:19:31.773Z,93956.63
2023-01-19T17:22:01.081Z,93948.13
2023-01-19T17:24:30.437Z,93958.72
2023-01-19T17:27:00.009Z,93936.75
2023-01-19T17:29:29.152Z,93928.78
2023-01-19T17:31:58.232Z,93922.97
2023-01-19T17:34:27.568Z,93934.31
2023-01-19T17:37:03.323Z,93924.28
2023-01-19T17:39:32.861Z,93925.09
2023-01-19T17:42:02.074Z,93911.88
2023-01-19T17:44:31.340Z,93939.41
2023-01-19T17:47:00.767Z,93915.06
2023-01-19T17:49:30.293Z,93936.25
2023-01-19T17:52:01.054Z,93938.13
2023-01-19T17:54:30.474Z,93941.56
2023-01-19T17:56:59.778Z,93934.97
2023-01-19T17:59:29.072Z,93945.81
2023-01-19T18:01:58.263Z,93947.66
2023-01-19T18:04:27.483Z,93953.75
2023-01-19T18:06:57.690Z,93960.09
2023-01-19T18:09:28.569Z,93966.44
2023-01-19T18:11:57.843Z,93974.66
2023-01-19T18:14:27.113Z,93990.25
2023-01-19T18:16:56.336Z,93992.66
2023-01-19T18:19:25.715Z,93999.28
2023-01-19T18:21:55.125Z,93995.25
2023-01-19T18:24:24.431Z,93998.47
2023-01-19T18:26:55.770Z,93987.00
2023-01-19T18:29:25.094Z,93998.88
2023-01-19T18:31:54.388Z,93986.13
2023-01-19T18:34:23.591Z,93992.69
2023-01-19T18:36:52.819Z,93964.34
2023-01-19T18:39:22.038Z,93983.03
2023-01-19T18:41:51.419Z,93978.19
2023-01-19T18:44:22.245Z,93958.91
2023-01-19T18:46:52.426Z,93973.16
2023-01-19T18:49:21.605Z,93991.44
2023-01-19T18:51:50.945Z,93988.47
2023-01-19T18:54:21.075Z,93982.19
2023-01-19T18:56:51.736Z,93983.50
2023-01-19T18:59:22.397Z,94008.41
2023-01-19T19:01:52.040Z,94019.97
2023-01-19T19:04:21.328Z,94015.44
2023-01-19T19:06:50.404Z,94019.72
2023-01-19T19:09:19.661Z,94010.03
2023-01-19T19:11:48.802Z,94006.38
2023-01-19T19:14:18.119Z,94017.19
2023-01-19T19:16:48.675Z,94004.72
2023-01-19T19:19:18.742Z,93987.41
2023-01-19T19:21:49.290Z,93968.84
2023-01-19T19:24:18.626Z,93963.22
2023-01-19T19:26:47.788Z,93989.16
2023-01-19T19:29:16.846Z,93992.59
2023-01-19T19:31:46.435Z,93984.31
2023-01-19T19:34:17.179Z,93993.59
2023-01-19T19:36:46.311Z,93987.22
2023-01-19T19:39:15.316Z,94002.31
2023-01-19T19:41:44.637Z,93985.81
2023-01-19T19:44:14.098Z,93980.97
2023-01-19T19:46:43.360Z,93954.50
2023-01-19T19:49:12.558Z,93957.22
2023-01-19T19:51:43.855Z,93966.50
2023-01-19T19:54:13.098Z,93979.63
2023-01-19T19:56:42.429Z,93971.19
2023-01-19T19:59:11.887Z,93973.81
2023-01-19T20:01:41.332Z,93964.75
2023-01-19T20:04:14.580Z,93941.16
2023-01-19T20:06:46.532Z,93934.16
2023-01-19T20:09:17.126Z,93931.75
2023-01-19T20:11:49.341Z,93920.72
2023-01-19T20:14:18.780Z,93945.22
2023-01-19T20:16:47.867Z,93952.34
2023-01-19T20:19:18.163Z,93937.38
2023-01-19T20:21:48.786Z,93929.75
2023-01-19T20:24:20.512Z,93919.47
2023-01-19T20:26:52.520Z,93922.75
2023-01-19T20:29:22.449Z,93920.91
2023-01-19T20:31:54.144Z,93937.56
2023-01-19T20:34:25.439Z,93935.09
2023-01-19T20:36:56.588Z,93945.13
2023-01-19T20:39:26.385Z,93944.38
2023-01-19T20:41:55.533Z,93951.75
2023-01-19T20:44:26.919Z,93933.50
2023-01-19T20:46:56.733Z,93927.16
2023-01-19T20:49:25.757Z,93938.56
2023-01-19T20:51:56.481Z,93948.91
2023-01-19T20:54:28.146Z,93946.06
2023-01-19T20:56:58.567Z,93937.34
2023-01-19T20:59:28.187Z,93939.78
2023-01-19T21:01:57.556Z,93949.97
2023-01-19T21:04:26.750Z,93952.09
2023-01-19T21:06:57.309Z,93934.63
2023-01-19T21:09:26.535Z,93926.59
2023-01-19T21:11:57.424Z,93917.47
2023-01-19T21:14:26.939Z,93923.28
2023-01-19T21:16:58.650Z,93923.47
2023-01-19T21:19:28.322Z,93937.44
2023-01-19T21:21:58.820Z,93930.38
2023-01-19T21:24:29.501Z,93927.72
2023-01-19T21:26:58.651Z,93949.63
2023-01-19T21:29:29.388Z,93948.41
2023-01-19T21:31:58.809Z,93958.13
2023-01-19T21:34:28.349Z,93963.00
2023-01-19T21:36:58.909Z,93952.78
2023-01-19T21:39:28.372Z,93958.38
2023-01-19T21:41:57.990Z,93921.69
2023-01-19T21:44:27.778Z,93906.78
2023-01-19T21:46:56.976Z,93915.63
2023-01-19T21:49:26.194Z,93905.59
2023-01-19T21:51:55.649Z,93897.56
2023-01-19T21:54:26.302Z,93899.06
2023-01-19T21:56:55.576Z,93903.78
2023-01-19T21:59:24.831Z,93911.94
2023-01-19T22:01:54.046Z,93908.34
2023-01-19T22:04:23.538Z,93900.44
2023-01-19T22:06:52.822Z,93893.31
2023-01-19T22:09:22.085Z,93896.06
2023-01-19T22:11:52.716Z,93893.88
2023-01-19T22:14:21.974Z,93887.75
2023-01-19T22:16:51.330Z,93901.13
2023-01-19T22:19:20.800Z,93908.00
2023-01-19T22:21:50.073Z,93904.34
2023-01-19T22:24:19.238Z,93897.31
2023-01-19T22:26:48.454Z,93879.34
2023-01-19T22:29:18.989Z,93882.22
2023-01-19T22:31:49.650Z,93881.03
2023-01-19T22:34:19.851Z,93898.13
2023-01-19T22:36:48.909Z,93888.59
2023-01-19T22:39:17.950Z,93866.59
2023-01-19T22:41:49.007Z,93873.34
2023-01-19T22:44:21.278Z,93871.75
2023-01-19T22:46:51.570Z,93889.00
2023-01-19T22:49:20.590Z,93880.22
2023-01-19T22:51:54.247Z,93862.78
2023-01-19T22:54:24.045Z,93869.22
2023-01-19T22:56:53.239Z,93868.28
2023-01-19T22:59:23.841Z,93865.53
2023-01-19T23:01:53.237Z,93893.53
2023-01-19T23:04:22.550Z,93904.72
2023-01-19T23:06:53.114Z,93909.34
2023-01-19T23:09:22.381Z,93922.84
2023-01-19T23:11:51.591Z,93918.88
2023-01-19T23:14:23.570Z,93911.16
2023-01-19T23:16:52.883Z,93898.03
2023-01-19T23:19:21.923Z,93907.59
2023-01-19T23:21:52.657Z,93927.44
2023-01-19T23:24:21.939Z,93963.25
2023-01-19T23:26:51.409Z,93985.94
2023-01-19T23:29:21.040Z,94006.97
2023-01-19T23:31:53.667Z,94005.94
2023-01-19T23:34:22.948Z,93994.59
2023-01-19T23:36:51.939Z,93959.06
2023-01-19T23:39:22.224Z,93906.16
2023-01-19T23:41:51.858Z,93858.91
2023-01-19T23:44:20.991Z,93840.25
2023-01-19T23:46:51.622Z,93820.16
2023-01-19T23:49:20.715Z,93820.50
2023-01-19T23:51:49.665Z,93841.38
2023-01-19T23:54:19.010Z,93815.56
2023-01-19T23:56:48.076Z,93793.34
2023-01-19T23:59:17.852Z,93776.91
